• Join FlightAware (Why Join?)
  • Login
  • US Flag 
02:12PM EDT


 

Airport Tracker/Info


-or-


 

Live Flight TrackerFlight Track Log ✈ EJA658 ✈ 27-Apr-2013 ✈ KMQS - KPHF

Flight Track Log - Related Links

Times and Time Zones

All times are in EDT time to prevent confusion due to time zone crossing. See the EJA658 flight status page for this flight to view local times or setup timezone preferences in your user account.

Time Position Orientation Groundspeed Altitude Reporting Facility
EDT Latitude Longitude Course Direction KTS MPH feet Rate Location/Type
06:39AM 39.9833 -75.8500 128° Southeast 175 201 1,700  Level Philadelphia TRACON
06:40AM 39.9333 -75.7667 128° Southeast 255 293 5,800 3,060 Climbing Philadelphia TRACON
06:41AM 39.8833 -75.7000 134° Southeast 271 312 8,800 2,700 Climbing Philadelphia TRACON
06:42AM 39.8167 -75.6500 150° Southeast 277 319 11,200 1,560 Climbing Philadelphia TRACON
06:43AM 39.7500 -75.5833 142° Southeast 310 357 12,000 360 Climbing Philadelphia TRACON
06:44AM 39.6833 -75.5000 136° Southeast 326 375 12,000  Level Philadelphia TRACON
06:45AM 39.6000 -75.4333 148° Southeast 340 391 12,000 -60 Level Philadelphia TRACON
06:46AM 39.5656 -75.3897 136° Southeast 345 397 11,900 -60 Descending Washington Center
06:47AM 39.4819 -75.3333 152° Southeast 353 406 11,900 420 Level Washington Center
06:48AM 39.3861 -75.3472 186° South 329 379 12,800 1,320 Climbing Washington Center
06:49AM 39.2925 -75.3664 189° South 329 379 14,500 1,500 Climbing Washington Center
06:50AM 39.1925 -75.3853 188° South 354 407 15,900 660 Climbing Washington Center
06:51AM 39.0883 -75.3992 186° South 367 422 15,900  Level Washington Center
06:52AM 38.9861 -75.4181 188° South 373 429 15,900  Level Washington Center
06:53AM 38.8819 -75.4317 186° South 373 429 15,900  Level Washington Center
06:54AM 38.7797 -75.4478 187° South 378 435 15,900  Level Washington Center
06:55AM 38.6819 -75.4881 198° South 378 435 15,900  Level Washington Center
06:56AM 38.5900 -75.5492 207° Southwest 371 427 15,900  Level Washington Center
06:57AM 38.5006 -75.6103 208° Southwest 371 427 15,900  Level Washington Center
06:58AM 38.4086 -75.6658 205° Southwest 371 427 15,900  Level Washington Center
06:59AM 38.3044 -75.7347 207° Southwest 380 437 16,000 60 Climbing Washington Center
07:00AM 38.2147 -75.7925 207° Southwest 380 437 16,100 -120 Climbing Washington Center
07:01AM 38.1228 -75.8558 208° Southwest 380 437 15,800 -840 Descending Washington Center
07:02AM 38.0350 -75.9133 207° Southwest 372 428 14,500 -1,440 Descending Washington Center
07:03AM 37.9431 -75.9736 207° Southwest 346 398 12,800 -1,560 Descending Washington Center
07:04AM 37.8636 -76.0231 206° Southwest 355 409 11,500 -1,440 Descending Washington Center
07:05AM 37.7822 -76.0778 208° Southwest 344 396 10,100 -780 Descending Washington Center
07:06AM 37.7089 -76.1300 209° Southwest 344 396 10,000 -60 Descending Washington Center
07:07AM 37.6128 -76.1869 205° Southwest 344 396 10,000  Level Washington Center
07:07AM 37.5856 -76.2078 211° Southwest 349 402 10,000 -600 Level Washington Center
07:08AM 37.5353 -76.2467 212° Southwest 344 396 9,400 -1,200 Descending Washington Center
07:08AM 37.5081 -76.2725 217° Southwest 287 330 8,700 -1,500 Descending Washington Center
07:09AM 37.4703 -76.3036 213° Southwest 314 361 7,900 -1,500 Descending Washington Center
07:09AM 37.4450 -76.3294 219° Southwest 261 300 7,200 -1,500 Descending Washington Center
07:10AM 37.4117 -76.3553 212° Southwest 283 326 6,400 -1,380 Descending Washington Center
07:10AM 37.3886 -76.3811 222° Southwest 253 291 5,800 -1,500 Descending Washington Center
07:11AM 37.3550 -76.4097 214° Southwest 265 305 4,900 -1,620 Descending Washington Center
07:11AM 37.3297 -76.4381 222° Southwest 256 295 4,200 -1,440 Descending Washington Center
07:12AM 37.3025 -76.4614 214° Southwest 260 299 3,500 -1,260 Descending Washington Center
07:12AM 37.2856 -76.4794 220° Southwest 223 257 3,100 -1,140 Descending Washington Center
07:13AM 37.2561 -76.5078 217° Southwest 237 273 2,400 -1,140 Descending Washington Center
07:13AM 37.2372 -76.5258 217° Southwest 198 228 2,000 -600 Descending Washington Center
07:14AM 37.1933 -76.5567 209° Southwest 183 211 1,600 -300 Descending Washington Center
07:15AM 37.1431 -76.5714 193° South 161 185 1,500 -120 Descending Washington Center